sensor_id;sensor_type;location;lat;lon;timestamp;pressure;altitude;pressure_sealevel;temperature;humidity
75063;BME280;63981;51.052;13.754;2023-07-20T00:01:26;99967.97;;;17.89;79.16
75063;BME280;63981;51.052;13.754;2023-07-20T00:03:53;99973.47;;;17.87;80.71
75063;BME280;63981;51.052;13.754;2023-07-20T00:06:22;99975.44;;;17.85;80.91
75063;BME280;63981;51.052;13.754;2023-07-20T00:08:50;99970.34;;;17.74;81.06
75063;BME280;63981;51.052;13.754;2023-07-20T00:11:16;99960.69;;;17.73;81.33
75063;BME280;63981;51.052;13.754;2023-07-20T00:13:43;99971.72;;;17.78;81.09
75063;BME280;63981;51.052;13.754;2023-07-20T00:16:10;99983.56;;;17.84;81.74
75063;BME280;63981;51.052;13.754;2023-07-20T00:18:37;99971.78;;;17.86;80.93
75063;BME280;63981;51.052;13.754;2023-07-20T00:21:03;99977.78;;;17.88;80.56
75063;BME280;63981;51.052;13.754;2023-07-20T00:23:30;99968.97;;;17.88;81.13
75063;BME280;63981;51.052;13.754;2023-07-20T00:25:56;99955.63;;;17.88;80.52
75063;BME280;63981;51.052;13.754;2023-07-20T00:28:22;99965.97;;;17.91;80.46
75063;BME280;63981;51.052;13.754;2023-07-20T00:30:49;99956.81;;;17.93;81.21
75063;BME280;63981;51.052;13.754;2023-07-20T00:33:17;99966.66;;;17.93;80.77
75063;BME280;63981;51.052;13.754;2023-07-20T00:35:44;99956.16;;;17.91;80.60
75063;BME280;63981;51.052;13.754;2023-07-20T00:38:10;99975.97;;;17.89;80.94
75063;BME280;63981;51.052;13.754;2023-07-20T00:40:37;99972.78;;;17.85;80.95
75063;BME280;63981;51.052;13.754;2023-07-20T00:43:04;99979.09;;;17.84;81.26
75063;BME280;63981;51.052;13.754;2023-07-20T00:45:31;99976.13;;;17.87;80.89
75063;BME280;63981;51.052;13.754;2023-07-20T00:47:58;99980.97;;;17.92;80.80
75063;BME280;63981;51.052;13.754;2023-07-20T00:50:28;99982.66;;;17.93;81.00
75063;BME280;63981;51.052;13.754;2023-07-20T00:52:55;99977.84;;;17.96;80.89
75063;BME280;63981;51.052;13.754;2023-07-20T00:55:22;99976.31;;;17.94;79.79
75063;BME280;63981;51.052;13.754;2023-07-20T00:57:49;99984.03;;;17.97;79.51
75063;BME280;63981;51.052;13.754;2023-07-20T01:00:16;99980.00;;;17.93;79.33
75063;BME280;63981;51.052;13.754;2023-07-20T01:02:43;99974.13;;;17.89;79.40
75063;BME280;63981;51.052;13.754;2023-07-20T01:05:10;99980.97;;;17.92;79.90
75063;BME280;63981;51.052;13.754;2023-07-20T01:07:43;99979.16;;;17.92;79.77
75063;BME280;63981;51.052;13.754;2023-07-20T01:10:24;99974.88;;;18.00;79.61
75063;BME280;63981;51.052;13.754;2023-07-20T01:12:52;99986.91;;;18.04;79.93
75063;BME280;63981;51.052;13.754;2023-07-20T01:15:19;99974.41;;;18.04;78.54
75063;BME280;63981;51.052;13.754;2023-07-20T01:17:45;99973.94;;;18.09;78.82
75063;BME280;63981;51.052;13.754;2023-07-20T01:20:14;99978.81;;;18.13;78.33
75063;BME280;63981;51.052;13.754;2023-07-20T01:25:50;99988.44;;;18.06;77.42
75063;BME280;63981;51.052;13.754;2023-07-20T01:28:39;99991.09;;;18.06;77.75
75063;BME280;63981;51.052;13.754;2023-07-20T01:31:20;99991.63;;;18.10;77.85
75063;BME280;63981;51.052;13.754;2023-07-20T01:33:48;99992.31;;;18.12;77.06
75063;BME280;63981;51.052;13.754;2023-07-20T01:36:16;99989.50;;;18.13;77.12
75063;BME280;63981;51.052;13.754;2023-07-20T01:38:44;99984.47;;;18.10;76.53
75063;BME280;63981;51.052;13.754;2023-07-20T01:41:11;100000.94;;;18.06;76.88
75063;BME280;63981;51.052;13.754;2023-07-20T01:43:37;99989.75;;;18.02;77.49
75063;BME280;63981;51.052;13.754;2023-07-20T01:46:05;99990.34;;;17.96;77.34
75063;BME280;63981;51.052;13.754;2023-07-20T01:48:32;99985.13;;;17.86;77.28
75063;BME280;63981;51.052;13.754;2023-07-20T01:50:59;99986.94;;;17.86;77.73
75063;BME280;63981;51.052;13.754;2023-07-20T01:53:25;99990.59;;;17.85;77.04
75063;BME280;63981;51.052;13.754;2023-07-20T01:55:52;99990.88;;;17.82;77.05
75063;BME280;63981;51.052;13.754;2023-07-20T01:58:19;99980.84;;;17.76;77.71
75063;BME280;63981;51.052;13.754;2023-07-20T02:00:46;99995.34;;;17.73;78.24
75063;BME280;63981;51.052;13.754;2023-07-20T02:03:12;99995.91;;;17.67;77.85
75063;BME280;63981;51.052;13.754;2023-07-20T02:05:42;100001.69;;;17.62;78.78
75063;BME280;63981;51.052;13.754;2023-07-20T02:08:09;99987.13;;;17.57;77.52
75063;BME280;63981;51.052;13.754;2023-07-20T02:10:35;99980.44;;;17.53;77.94
75063;BME280;63981;51.052;13.754;2023-07-20T02:13:02;99985.94;;;17.51;77.65
75063;BME280;63981;51.052;13.754;2023-07-20T02:15:28;99989.44;;;17.52;79.01
75063;BME280;63981;51.052;13.754;2023-07-20T02:17:55;99979.75;;;17.51;78.49
75063;BME280;63981;51.052;13.754;2023-07-20T02:20:21;99990.41;;;17.51;78.61
75063;BME280;63981;51.052;13.754;2023-07-20T02:22:49;99983.56;;;17.48;78.64
75063;BME280;63981;51.052;13.754;2023-07-20T02:25:15;99992.56;;;17.47;79.44
75063;BME280;63981;51.052;13.754;2023-07-20T02:27:42;99983.31;;;17.42;77.99
75063;BME280;63981;51.052;13.754;2023-07-20T02:30:09;99986.00;;;17.42;78.73
75063;BME280;63981;51.052;13.754;2023-07-20T02:32:36;99987.81;;;17.41;79.17
75063;BME280;63981;51.052;13.754;2023-07-20T02:35:03;99993.31;;;17.39;78.96
75063;BME280;63981;51.052;13.754;2023-07-20T02:37:30;99994.44;;;17.37;79.21
75063;BME280;63981;51.052;13.754;2023-07-20T02:39:58;99998.25;;;17.34;79.69
75063;BME280;63981;51.052;13.754;2023-07-20T02:42:24;99997.56;;;17.32;80.05
75063;BME280;63981;51.052;13.754;2023-07-20T02:44:52;99987.97;;;17.22;79.63
75063;BME280;63981;51.052;13.754;2023-07-20T02:47:18;99998.00;;;17.28;79.12
75063;BME280;63981;51.052;13.754;2023-07-20T02:49:44;99993.34;;;17.30;79.35
75063;BME280;63981;51.052;13.754;2023-07-20T02:52:11;99999.41;;;17.32;79.59
75063;BME280;63981;51.052;13.754;2023-07-20T02:54:37;99997.56;;;17.32;79.91
75063;BME280;63981;51.052;13.754;2023-07-20T02:57:05;100008.06;;;17.34;79.67
75063;BME280;63981;51.052;13.754;2023-07-20T02:59:32;100000.50;;;17.29;80.30
75063;BME280;63981;51.052;13.754;2023-07-20T03:01:58;100019.09;;;17.39;79.75
75063;BME280;63981;51.052;13.754;2023-07-20T03:04:26;100021.31;;;17.44;79.54
75063;BME280;63981;51.052;13.754;2023-07-20T03:06:52;100014.47;;;17.41;79.02
75063;BME280;63981;51.052;13.754;2023-07-20T03:09:19;100017.28;;;17.39;78.89
75063;BME280;63981;51.052;13.754;2023-07-20T03:11:45;100017.28;;;17.39;79.53
75063;BME280;63981;51.052;13.754;2023-07-20T03:14:13;100024.75;;;17.36;79.47
75063;BME280;63981;51.052;13.754;2023-07-20T03:16:40;100024.91;;;17.34;78.42
75063;BME280;63981;51.052;13.754;2023-07-20T03:19:06;100023.22;;;17.33;79.29
75063;BME280;63981;51.052;13.754;2023-07-20T03:21:32;100025.19;;;17.31;79.64
75063;BME280;63981;51.052;13.754;2023-07-20T03:23:59;100027.47;;;17.26;79.78
75063;BME280;63981;51.052;13.754;2023-07-20T03:26:25;100032.41;;;17.21;79.32
75063;BME280;63981;51.052;13.754;2023-07-20T03:28:52;100037.88;;;17.20;79.61
75063;BME280;63981;51.052;13.754;2023-07-20T03:31:22;100037.75;;;17.21;80.01
75063;BME280;63981;51.052;13.754;2023-07-20T03:33:49;100036.59;;;17.24;79.86
75063;BME280;63981;51.052;13.754;2023-07-20T03:36:15;100034.31;;;17.29;80.05
75063;BME280;63981;51.052;13.754;2023-07-20T03:38:41;100034.88;;;17.32;80.02
75063;BME280;63981;51.052;13.754;2023-07-20T03:41:08;100032.47;;;17.29;80.14
75063;BME280;63981;51.052;13.754;2023-07-20T03:43:35;100038.22;;;17.34;79.66
75063;BME280;63981;51.052;13.754;2023-07-20T03:46:01;100034.41;;;17.37;79.43
75063;BME280;63981;51.052;13.754;2023-07-20T03:48:34;100032.28;;;17.40;80.24
75063;BME280;63981;51.052;13.754;2023-07-20T03:51:00;100016.97;;;17.43;79.71
75063;BME280;63981;51.052;13.754;2023-07-20T03:53:27;100025.13;;;17.41;79.42
75063;BME280;63981;51.052;13.754;2023-07-20T03:55:53;100025.81;;;17.43;79.74
75063;BME280;63981;51.052;13.754;2023-07-20T03:58:21;100034.38;;;17.47;78.91
75063;BME280;63981;51.052;13.754;2023-07-20T04:00:48;100035.19;;;17.47;79.49
75063;BME280;63981;51.052;13.754;2023-07-20T04:03:16;100033.38;;;17.48;79.29
75063;BME280;63981;51.052;13.754;2023-07-20T04:05:44;100028.47;;;17.43;79.63
75063;BME280;63981;51.052;13.754;2023-07-20T04:08:10;100044.31;;;17.45;79.92
75063;BME280;63981;51.052;13.754;2023-07-20T04:10:37;100040.69;;;17.46;79.17
75063;BME280;63981;51.052;13.754;2023-07-20T04:13:04;100038.69;;;17.48;78.99
75063;BME280;63981;51.052;13.754;2023-07-20T04:15:30;100036.03;;;17.48;79.20
75063;BME280;63981;51.052;13.754;2023-07-20T04:17:57;100047.06;;;17.53;79.77
75063;BME280;63981;51.052;13.754;2023-07-20T04:20:24;100033.44;;;17.56;79.11
75063;BME280;63981;51.052;13.754;2023-07-20T04:22:52;100034.22;;;17.66;79.10
75063;BME280;63981;51.052;13.754;2023-07-20T04:25:18;100037.22;;;17.81;78.45
75063;BME280;63981;51.052;13.754;2023-07-20T04:27:45;100037.31;;;17.89;77.34
75063;BME280;63981;51.052;13.754;2023-07-20T04:30:12;100041.00;;;17.96;78.15
75063;BME280;63981;51.052;13.754;2023-07-20T04:32:39;100043.31;;;17.91;75.97
75063;BME280;63981;51.052;13.754;2023-07-20T04:35:17;100046.66;;;17.93;76.56
75063;BME280;63981;51.052;13.754;2023-07-20T04:37:44;100046.50;;;17.94;76.76
75063;BME280;63981;51.052;13.754;2023-07-20T04:40:16;100043.47;;;17.89;76.28
75063;BME280;63981;51.052;13.754;2023-07-20T04:42:42;100049.00;;;17.96;77.53
75063;BME280;63981;51.052;13.754;2023-07-20T04:45:09;100042.56;;;17.98;77.71
75063;BME280;63981;51.052;13.754;2023-07-20T04:47:36;100050.63;;;18.07;77.14
75063;BME280;63981;51.052;13.754;2023-07-20T04:50:03;100050.31;;;18.10;76.84
75063;BME280;63981;51.052;13.754;2023-07-20T04:52:30;100048.34;;;18.12;77.01
75063;BME280;63981;51.052;13.754;2023-07-20T04:54:58;100050.03;;;18.13;76.97
75063;BME280;63981;51.052;13.754;2023-07-20T04:57:26;100046.34;;;18.14;76.80
75063;BME280;63981;51.052;13.754;2023-07-20T04:59:52;100048.50;;;18.10;76.59
75063;BME280;63981;51.052;13.754;2023-07-20T05:02:19;100055.94;;;18.07;76.28
75063;BME280;63981;51.052;13.754;2023-07-20T05:04:45;100053.75;;;18.02;76.87
75063;BME280;63981;51.052;13.754;2023-07-20T05:07:11;100055.75;;;18.00;76.35
75063;BME280;63981;51.052;13.754;2023-07-20T05:09:38;100054.75;;;18.01;75.90
75063;BME280;63981;51.052;13.754;2023-07-20T05:12:05;100054.28;;;18.06;75.39
75063;BME280;63981;51.052;13.754;2023-07-20T05:14:33;100056.34;;;18.12;76.34
75063;BME280;63981;51.052;13.754;2023-07-20T05:17:00;100051.69;;;18.14;75.20
75063;BME280;63981;51.052;13.754;2023-07-20T05:19:26;100050.22;;;18.19;74.66
75063;BME280;63981;51.052;13.754;2023-07-20T05:21:53;100048.53;;;18.18;74.75
75063;BME280;63981;51.052;13.754;2023-07-20T05:24:19;100052.06;;;18.19;74.58
75063;BME280;63981;51.052;13.754;2023-07-20T05:26:45;100053.03;;;18.18;74.86
75063;BME280;63981;51.052;13.754;2023-07-20T05:29:12;100058.06;;;18.21;75.03
75063;BME280;63981;51.052;13.754;2023-07-20T05:31:40;100047.78;;;18.26;74.84
75063;BME280;63981;51.052;13.754;2023-07-20T05:34:06;100042.66;;;18.33;75.14
75063;BME280;63981;51.052;13.754;2023-07-20T05:36:32;100050.88;;;18.39;75.65
75063;BME280;63981;51.052;13.754;2023-07-20T05:38:58;100055.59;;;18.45;75.20
75063;BME280;63981;51.052;13.754;2023-07-20T05:41:25;100051.47;;;18.51;75.36
75063;BME280;63981;51.052;13.754;2023-07-20T05:43:51;100054.19;;;18.59;74.99
75063;BME280;63981;51.052;13.754;2023-07-20T05:46:18;100049.38;;;18.63;74.62
75063;BME280;63981;51.052;13.754;2023-07-20T05:48:45;100058.44;;;18.70;74.41
75063;BME280;63981;51.052;13.754;2023-07-20T05:51:11;100056.94;;;18.67;73.03
75063;BME280;63981;51.052;13.754;2023-07-20T05:53:38;100058.13;;;18.73;74.04
75063;BME280;63981;51.052;13.754;2023-07-20T05:56:04;100062.84;;;18.79;72.82
75063;BME280;63981;51.052;13.754;2023-07-20T05:58:31;100070.91;;;18.87;73.67
75063;BME280;63981;51.052;13.754;2023-07-20T06:00:58;100071.94;;;18.94;72.99
75063;BME280;63981;51.052;13.754;2023-07-20T06:03:24;100065.13;;;19.00;73.41
75063;BME280;63981;51.052;13.754;2023-07-20T06:05:52;100070.69;;;19.06;73.37
75063;BME280;63981;51.052;13.754;2023-07-20T06:08:18;100075.84;;;19.08;73.09
75063;BME280;63981;51.052;13.754;2023-07-20T06:10:44;100076.53;;;19.10;73.00
75063;BME280;63981;51.052;13.754;2023-07-20T06:13:15;100079.72;;;19.13;72.90
75063;BME280;63981;51.052;13.754;2023-07-20T06:15:41;100073.56;;;19.21;72.31
75063;BME280;63981;51.052;13.754;2023-07-20T06:18:08;100070.75;;;19.23;72.53
75063;BME280;63981;51.052;13.754;2023-07-20T06:20:34;100074.56;;;19.20;71.71
75063;BME280;63981;51.052;13.754;2023-07-20T06:23:02;100085.88;;;19.14;72.28
75063;BME280;63981;51.052;13.754;2023-07-20T06:25:29;100086.19;;;19.03;73.05
75063;BME280;63981;51.052;13.754;2023-07-20T06:27:55;100094.94;;;18.87;73.04
75063;BME280;63981;51.052;13.754;2023-07-20T06:30:22;100097.41;;;18.80;73.36
75063;BME280;63981;51.052;13.754;2023-07-20T06:32:48;100098.00;;;18.66;74.15
75063;BME280;63981;51.052;13.754;2023-07-20T06:35:15;100093.69;;;18.55;74.70
75063;BME280;63981;51.052;13.754;2023-07-20T06:37:42;100095.47;;;18.47;75.17
75063;BME280;63981;51.052;13.754;2023-07-20T06:40:10;100101.75;;;18.38;75.48
75063;BME280;63981;51.052;13.754;2023-07-20T06:42:37;100099.53;;;18.33;75.62
75063;BME280;63981;51.052;13.754;2023-07-20T06:45:04;100102.88;;;18.35;76.01
75063;BME280;63981;51.052;13.754;2023-07-20T06:47:30;100111.72;;;18.36;76.05
75063;BME280;63981;51.052;13.754;2023-07-20T06:49:57;100110.19;;;18.33;76.72
75063;BME280;63981;51.052;13.754;2023-07-20T06:52:23;100115.38;;;18.35;77.12
75063;BME280;63981;51.052;13.754;2023-07-20T06:54:49;100115.09;;;18.38;77.24
75063;BME280;63981;51.052;13.754;2023-07-20T06:57:17;100120.50;;;18.28;77.52
75063;BME280;63981;51.052;13.754;2023-07-20T06:59:43;100121.94;;;18.22;76.08
75063;BME280;63981;51.052;13.754;2023-07-20T07:02:10;100118.06;;;18.17;76.08
75063;BME280;63981;51.052;13.754;2023-07-20T07:04:36;100110.81;;;18.09;75.52
75063;BME280;63981;51.052;13.754;2023-07-20T07:07:03;100127.38;;;18.13;76.11
75063;BME280;63981;51.052;13.754;2023-07-20T07:09:29;100116.88;;;18.11;75.87
75063;BME280;63981;51.052;13.754;2023-07-20T07:11:56;100126.53;;;18.12;75.97
75063;BME280;63981;51.052;13.754;2023-07-20T07:14:23;100127.06;;;18.16;76.05
75063;BME280;63981;51.052;13.754;2023-07-20T07:16:50;100125.47;;;18.23;77.15
75063;BME280;63981;51.052;13.754;2023-07-20T07:19:16;100110.19;;;18.33;76.54
75063;BME280;63981;51.052;13.754;2023-07-20T07:21:43;100116.53;;;18.32;76.80
75063;BME280;63981;51.052;13.754;2023-07-20T07:24:09;100120.72;;;18.35;76.17
75063;BME280;63981;51.052;13.754;2023-07-20T07:26:36;100122.72;;;18.33;76.51
75063;BME280;63981;51.052;13.754;2023-07-20T07:29:02;100126.53;;;18.30;76.08
75063;BME280;63981;51.052;13.754;2023-07-20T07:31:30;100128.81;;;18.43;77.25
75063;BME280;63981;51.052;13.754;2023-07-20T07:33:57;100121.41;;;18.54;75.90
75063;BME280;63981;51.052;13.754;2023-07-20T07:36:23;100127.25;;;18.58;76.28
75063;BME280;63981;51.052;13.754;2023-07-20T07:38:51;100118.50;;;18.66;75.72
75063;BME280;63981;51.052;13.754;2023-07-20T07:41:17;100121.69;;;18.69;71.91
75063;BME280;63981;51.052;13.754;2023-07-20T07:43:44;100117.44;;;18.76;71.56
75063;BME280;63981;51.052;13.754;2023-07-20T07:46:10;100125.13;;;18.79;71.30
75063;BME280;63981;51.052;13.754;2023-07-20T07:48:37;100125.69;;;18.91;71.77
75063;BME280;63981;51.052;13.754;2023-07-20T07:51:04;100129.78;;;19.03;70.47
75063;BME280;63981;51.052;13.754;2023-07-20T07:53:30;100133.84;;;19.15;72.29
75063;BME280;63981;51.052;13.754;2023-07-20T07:55:56;100136.09;;;19.28;71.55
75063;BME280;63981;51.052;13.754;2023-07-20T07:58:23;100127.81;;;19.48;73.35
75063;BME280;63981;51.052;13.754;2023-07-20T08:00:49;100127.66;;;19.49;70.14
75063;BME280;63981;51.052;13.754;2023-07-20T08:03:15;100120.88;;;19.55;69.55
75063;BME280;63981;51.052;13.754;2023-07-20T08:05:43;100109.84;;;19.58;69.30
75063;BME280;63981;51.052;13.754;2023-07-20T08:08:09;100109.00;;;19.65;70.22
75063;BME280;63981;51.052;13.754;2023-07-20T08:10:36;100107.66;;;19.61;69.85
75063;BME280;63981;51.052;13.754;2023-07-20T08:13:02;100123.88;;;19.60;70.19
75063;BME280;63981;51.052;13.754;2023-07-20T08:15:52;100127.56;;;19.59;70.54
75063;BME280;63981;51.052;13.754;2023-07-20T08:18:19;100123.09;;;19.67;70.46
75063;BME280;63981;51.052;13.754;2023-07-20T08:20:47;100114.22;;;19.75;69.41
75063;BME280;63981;51.052;13.754;2023-07-20T08:23:15;100116.63;;;19.94;70.56
75063;BME280;63981;51.052;13.754;2023-07-20T08:25:41;100120.63;;;19.98;67.89
75063;BME280;63981;51.052;13.754;2023-07-20T08:28:14;100113.78;;;19.96;67.89
75063;BME280;63981;51.052;13.754;2023-07-20T08:30:41;100105.59;;;20.06;67.38
75063;BME280;63981;51.052;13.754;2023-07-20T08:33:09;100117.81;;;20.16;68.19
75063;BME280;63981;51.052;13.754;2023-07-20T08:35:35;100126.84;;;20.15;67.76
75063;BME280;63981;51.052;13.754;2023-07-20T08:38:03;100125.16;;;20.14;66.96
75063;BME280;63981;51.052;13.754;2023-07-20T08:40:31;100123.16;;;20.08;68.25
75063;BME280;63981;51.052;13.754;2023-07-20T08:42:58;100125.84;;;20.16;68.03
75063;BME280;63981;51.052;13.754;2023-07-20T08:45:27;100115.47;;;20.29;69.33
75063;BME280;63981;51.052;13.754;2023-07-20T08:47:56;100119.03;;;20.46;67.95
75063;BME280;63981;51.052;13.754;2023-07-20T08:50:23;100116.84;;;20.66;65.43
75063;BME280;63981;51.052;13.754;2023-07-20T08:52:50;100119.50;;;20.82;63.61
75063;BME280;63981;51.052;13.754;2023-07-20T08:55:20;100122.13;;;21.07;63.86
75063;BME280;63981;51.052;13.754;2023-07-20T08:57:50;100121.41;;;21.29;63.10
75063;BME280;63981;51.052;13.754;2023-07-20T09:00:19;100114.94;;;21.55;62.23
75063;BME280;63981;51.052;13.754;2023-07-20T09:02:48;100119.13;;;21.57;60.92
75063;BME280;63981;51.052;13.754;2023-07-20T09:05:15;100127.50;;;21.62;60.52
75063;BME280;63981;51.052;13.754;2023-07-20T09:07:41;100121.34;;;21.45;57.93
75063;BME280;63981;51.052;13.754;2023-07-20T09:10:08;100117.53;;;21.40;58.94
75063;BME280;63981;51.052;13.754;2023-07-20T09:12:39;100125.78;;;21.61;59.89
75063;BME280;63981;51.052;13.754;2023-07-20T09:15:06;100121.69;;;21.82;60.28
75063;BME280;63981;51.052;13.754;2023-07-20T09:17:33;100118.88;;;21.98;57.52
75063;BME280;63981;51.052;13.754;2023-07-20T09:20:01;100118.47;;;22.17;57.48
75063;BME280;63981;51.052;13.754;2023-07-20T09:22:31;100110.75;;;22.37;56.40
75063;BME280;63981;51.052;13.754;2023-07-20T09:24:58;100118.22;;;22.64;57.43
75063;BME280;63981;51.052;13.754;2023-07-20T09:27:35;100112.22;;;22.77;55.61
75063;BME280;63981;51.052;13.754;2023-07-20T09:30:04;100123.34;;;22.74;55.25
75063;BME280;63981;51.052;13.754;2023-07-20T09:32:38;100109.53;;;22.77;54.15
75063;BME280;63981;51.052;13.754;2023-07-20T09:35:06;100109.81;;;22.67;52.78
75063;BME280;63981;51.052;13.754;2023-07-20T09:37:33;100107.69;;;22.78;53.71
75063;BME280;63981;51.052;13.754;2023-07-20T09:40:00;100108.84;;;22.83;53.29
75063;BME280;63981;51.052;13.754;2023-07-20T09:42:26;100102.41;;;22.70;53.59
75063;BME280;63981;51.052;13.754;2023-07-20T09:44:55;100123.25;;;22.67;54.95
75063;BME280;63981;51.052;13.754;2023-07-20T09:47:22;100121.19;;;22.55;53.07
75063;BME280;63981;51.052;13.754;2023-07-20T09:49:49;100119.66;;;22.52;55.59
75063;BME280;63981;51.052;13.754;2023-07-20T09:52:15;100106.84;;;22.40;55.93
75063;BME280;63981;51.052;13.754;2023-07-20T09:54:44;100127.81;;;22.21;54.13
75063;BME280;63981;51.052;13.754;2023-07-20T09:57:11;100128.28;;;22.02;54.93
75063;BME280;63981;51.052;13.754;2023-07-20T09:59:40;100123.72;;;21.79;56.54
75063;BME280;63981;51.052;13.754;2023-07-20T10:02:12;100131.34;;;21.60;58.55
75063;BME280;63981;51.052;13.754;2023-07-20T10:04:41;100142.03;;;21.37;60.04
75063;BME280;63981;51.052;13.754;2023-07-20T10:07:10;100151.59;;;21.15;62.02
75063;BME280;63981;51.052;13.754;2023-07-20T10:09:39;100159.19;;;20.87;64.33
75063;BME280;63981;51.052;13.754;2023-07-20T10:12:07;100155.69;;;20.62;66.52
75063;BME280;63981;51.052;13.754;2023-07-20T10:14:38;100156.38;;;20.48;67.71
75063;BME280;63981;51.052;13.754;2023-07-20T10:17:11;100137.06;;;20.28;68.71
75063;BME280;63981;51.052;13.754;2023-07-20T10:19:47;100152.09;;;20.13;69.16
75063;BME280;63981;51.052;13.754;2023-07-20T10:22:19;100151.56;;;20.01;69.71
75063;BME280;63981;51.052;13.754;2023-07-20T10:24:49;100147.72;;;20.03;70.51
75063;BME280;63981;51.052;13.754;2023-07-20T10:27:16;100146.91;;;20.11;70.83
75063;BME280;63981;51.052;13.754;2023-07-20T10:29:42;100149.75;;;20.18;70.49
75063;BME280;63981;51.052;13.754;2023-07-20T10:32:10;100140.41;;;20.22;70.63
75063;BME280;63981;51.052;13.754;2023-07-20T10:34:37;100131.38;;;20.31;70.71
75063;BME280;63981;51.052;13.754;2023-07-20T10:37:04;100144.44;;;20.34;70.57
75063;BME280;63981;51.052;13.754;2023-07-20T10:39:32;100152.31;;;20.36;69.78
75063;BME280;63981;51.052;13.754;2023-07-20T10:42:02;100147.13;;;20.42;69.97
75063;BME280;63981;51.052;13.754;2023-07-20T10:44:30;100117.97;;;20.31;71.44
75063;BME280;63981;51.052;13.754;2023-07-20T10:47:00;100129.41;;;20.66;70.31
75063;BME280;63981;51.052;13.754;2023-07-20T10:49:28;100129.72;;;20.87;69.85
75063;BME280;63981;51.052;13.754;2023-07-20T10:51:58;100127.66;;;21.05;69.33
75063;BME280;63981;51.052;13.754;2023-07-20T10:54:46;100125.81;;;21.14;70.92
75063;BME280;63981;51.052;13.754;2023-07-20T10:57:25;100127.00;;;21.03;67.23
75063;BME280;63981;51.052;13.754;2023-07-20T11:00:07;100126.38;;;20.85;67.29
75063;BME280;63981;51.052;13.754;2023-07-20T11:02:42;100128.22;;;20.84;67.59
75063;BME280;63981;51.052;13.754;2023-07-20T11:05:33;100139.06;;;20.91;67.34
75063;BME280;63981;51.052;13.754;2023-07-20T11:08:04;100136.91;;;20.86;67.01
75063;BME280;63981;51.052;13.754;2023-07-20T11:10:31;100140.97;;;20.58;68.45
75063;BME280;63981;51.052;13.754;2023-07-20T11:13:17;100137.56;;;20.23;67.94
75063;BME280;63981;51.052;13.754;2023-07-20T11:15:47;100133.19;;;20.14;67.59
75063;BME280;63981;51.052;13.754;2023-07-20T11:18:14;100128.50;;;20.16;68.01
75063;BME280;63981;51.052;13.754;2023-07-20T11:20:42;100120.81;;;20.29;68.71
75063;BME280;63981;51.052;13.754;2023-07-20T11:23:08;100131.25;;;20.73;69.92
75063;BME280;63981;51.052;13.754;2023-07-20T11:25:39;100127.13;;;21.18;68.10
75063;BME280;63981;51.052;13.754;2023-07-20T11:28:07;100125.09;;;21.28;67.45
75063;BME280;63981;51.052;13.754;2023-07-20T11:30:34;100131.28;;;21.37;66.24
75063;BME280;63981;51.052;13.754;2023-07-20T11:33:01;100123.06;;;21.77;66.16
75063;BME280;63981;51.052;13.754;2023-07-20T11:35:27;100115.44;;;22.95;62.97
75063;BME280;63981;51.052;13.754;2023-07-20T11:37:56;100115.47;;;24.55;59.67
75063;BME280;63981;51.052;13.754;2023-07-20T11:40:22;100104.13;;;25.15;55.60
75063;BME280;63981;51.052;13.754;2023-07-20T11:42:49;100109.72;;;25.62;54.81
75063;BME280;63981;51.052;13.754;2023-07-20T11:45:16;100111.09;;;25.44;52.54
75063;BME280;63981;51.052;13.754;2023-07-20T11:47:44;100107.94;;;25.27;52.88
75063;BME280;63981;51.052;13.754;2023-07-20T11:50:11;100107.50;;;25.31;54.12
75063;BME280;63981;51.052;13.754;2023-07-20T11:52:40;100105.13;;;24.86;54.09
75063;BME280;63981;51.052;13.754;2023-07-20T11:55:08;100104.34;;;24.92;56.75
75063;BME280;63981;51.052;13.754;2023-07-20T11:57:36;100087.50;;;24.56;55.22
75063;BME280;63981;51.052;13.754;2023-07-20T12:00:04;100111.75;;;24.56;54.01
75063;BME280;63981;51.052;13.754;2023-07-20T12:02:34;100107.72;;;24.45;55.16
75063;BME280;63981;51.052;13.754;2023-07-20T12:05:02;100114.66;;;24.33;54.76
75063;BME280;63981;51.052;13.754;2023-07-20T12:07:29;100114.38;;;24.06;55.21
75063;BME280;63981;51.052;13.754;2023-07-20T12:10:05;100113.19;;;23.73;56.80
75063;BME280;63981;51.052;13.754;2023-07-20T12:12:33;100105.13;;;23.29;56.75
75063;BME280;63981;51.052;13.754;2023-07-20T12:15:14;100121.19;;;22.92;57.06
75063;BME280;63981;51.052;13.754;2023-07-20T12:17:42;100112.41;;;22.76;56.92
75063;BME280;63981;51.052;13.754;2023-07-20T12:20:09;100130.25;;;22.54;59.44
75063;BME280;63981;51.052;13.754;2023-07-20T12:22:38;100125.03;;;22.15;61.09
75063;BME280;63981;51.052;13.754;2023-07-20T12:25:06;100114.50;;;21.74;62.42
75063;BME280;63981;51.052;13.754;2023-07-20T12:27:35;100138.22;;;21.62;63.87
75063;BME280;63981;51.052;13.754;2023-07-20T12:30:02;100141.28;;;21.51;65.31
75063;BME280;63981;51.052;13.754;2023-07-20T12:32:30;100136.31;;;21.40;65.44
75063;BME280;63981;51.052;13.754;2023-07-20T12:34:56;100138.00;;;21.33;66.36
75063;BME280;63981;51.052;13.754;2023-07-20T12:37:22;100145.22;;;21.24;66.65
75063;BME280;63981;51.052;13.754;2023-07-20T12:39:49;100148.56;;;21.18;66.72
75063;BME280;63981;51.052;13.754;2023-07-20T12:42:15;100139.56;;;21.03;68.21
75063;BME280;63981;51.052;13.754;2023-07-20T12:44:43;100158.31;;;20.95;68.31
75063;BME280;63981;51.052;13.754;2023-07-20T12:47:10;100155.31;;;20.81;68.57
75063;BME280;63981;51.052;13.754;2023-07-20T12:49:36;100164.72;;;20.69;68.57